Canton, NY (13617)

8:30 AM EST on February 10, 2016 (GMT -0500)
Martin Tract | | Change Station
CLOSE
Current Station
Personal Weather Station
Location: Canton, NY
Elevation: 407 ft
Nearby Weather Stations

Elev 407 ft 44.60 °N, 75.18 °W | Updated 5 minutes ago

Snow
Snow
19.5 °F
Feels Like 20 °F
N
1.0
Wind Variable Wind from NNW
Gusts 3.0 mph

Today
High -- | Low -- °F
--% Chance of Precip.
Yesterday
High -- | Low -- °F
Precip. -- in
Pressure 29.58 in
Visibility 4.0 miles
Clouds Overcast 1900 ft
Windchill 20 °F
Dew Point 17 °F
Humidity 91%
Rainfall 0.00 in
Snow Depth Not available.
7:08 AM 5:21 PM
Waxing Crescent, 5% visible
METAR KMSS 101253Z AUTO 03006KT 4SM -SN BR OVC019 M07/M09 A2955 RMK AO2 SLP015 P0000 T10671089
Pressure 29.58 in
Visibility 4.0 miles
Clouds Overcast 1900 ft
Windchill 20 °F
Dew Point 17 °F
Humidity 91%
Rainfall 0.00 in
Snow Depth Not available.
7:08 AM 5:21 PM
Waxing Crescent, 5% visible
METAR KMSS 101253Z AUTO 03006KT 4SM -SN BR OVC019 M07/M09 A2955 RMK AO2 SLP015 P0000 T10671089

10-Day Weather Forecast

Almanac

Astronomy

Feb. 10, 2016 Rise Set
Actual Time
Civil Twilight
Nautical Twilight
Astronomical Twilight
Moon
Length of Visible Light
Length of Day
Tomorrow will be .
, % of the Moon is Illuminated

Today's Extremes

State Highs State Lows

Community

WunderPhotos

Upload Photos

1,891,840 photos uploaded!

WunderBlog® & News

Nearby

Air Quality

  Air Quality AQ Index Pollutant
Not available.

Snow Depth

Station Depth Elevation

Earthquake Activity

City Distance Mag. Time & Date
Minimum magnitude displayed is 2.5.

Coastal Water Temperatures

Place Temperature

Stations

Nearby Weather Stations

Station Location Temp. Windchill Dew Point Humidity Wind Precip. Elev Updated Type
                   

Watches & Warnings

There are currently no watches in effect.